sensor_id;sensor_type;location;lat;lon;timestamp;P1;durP1;ratioP1;P2;durP2;ratioP2
18917;SDS011;9591;52.742;13.650;2024-01-16T00:04:55;3.10;;;1.60;;
18917;SDS011;9591;52.742;13.650;2024-01-16T00:07:42;2.73;;;1.27;;
18917;SDS011;9591;52.742;13.650;2024-01-16T00:13:45;1.43;;;1.43;;
18917;SDS011;9591;52.742;13.650;2024-01-16T00:16:31;3.20;;;1.50;;
18917;SDS011;9591;52.742;13.650;2024-01-16T00:19:23;2.00;;;1.77;;
18917;SDS011;9591;52.742;13.650;2024-01-16T00:22:12;1.57;;;1.47;;
18917;SDS011;9591;52.742;13.650;2024-01-16T00:25:04;3.57;;;1.50;;
18917;SDS011;9591;52.742;13.650;2024-01-16T00:27:54;2.20;;;2.10;;
18917;SDS011;9591;52.742;13.650;2024-01-16T00:30:43;1.60;;;1.50;;
18917;SDS011;9591;52.742;13.650;2024-01-16T00:33:33;2.33;;;2.13;;
18917;SDS011;9591;52.742;13.650;2024-01-16T00:36:23;2.87;;;2.07;;
18917;SDS011;9591;52.742;13.650;2024-01-16T00:39:11;1.57;;;1.47;;
18917;SDS011;9591;52.742;13.650;2024-01-16T00:42:05;1.90;;;1.80;;
18917;SDS011;9591;52.742;13.650;2024-01-16T00:48:10;5.47;;;1.60;;
18917;SDS011;9591;52.742;13.650;2024-01-16T00:50:59;2.53;;;1.63;;
18917;SDS011;9591;52.742;13.650;2024-01-16T00:53:46;3.70;;;1.80;;
18917;SDS011;9591;52.742;13.650;2024-01-16T00:56:36;2.40;;;1.80;;
18917;SDS011;9591;52.742;13.650;2024-01-16T00:59:25;4.30;;;2.83;;
18917;SDS011;9591;52.742;13.650;2024-01-16T01:02:17;4.47;;;1.80;;
18917;SDS011;9591;52.742;13.650;2024-01-16T01:05:04;5.00;;;1.83;;
18917;SDS011;9591;52.742;13.650;2024-01-16T01:07:51;3.43;;;1.73;;
18917;SDS011;9591;52.742;13.650;2024-01-16T01:10:40;4.00;;;2.33;;
18917;SDS011;9591;52.742;13.650;2024-01-16T01:13:27;2.83;;;2.07;;
18917;SDS011;9591;52.742;13.650;2024-01-16T01:16:16;3.67;;;2.07;;
18917;SDS011;9591;52.742;13.650;2024-01-16T01:19:05;1.97;;;1.87;;
18917;SDS011;9591;52.742;13.650;2024-01-16T01:21:57;1.90;;;1.80;;
18917;SDS011;9591;52.742;13.650;2024-01-16T01:24:44;4.07;;;1.80;;
18917;SDS011;9591;52.742;13.650;2024-01-16T01:27:33;2.00;;;1.87;;
18917;SDS011;9591;52.742;13.650;2024-01-16T01:30:21;2.00;;;1.90;;
18917;SDS011;9591;52.742;13.650;2024-01-16T01:33:25;3.40;;;2.10;;
18917;SDS011;9591;52.742;13.650;2024-01-16T01:36:14;2.00;;;1.90;;
18917;SDS011;9591;52.742;13.650;2024-01-16T01:39:03;2.00;;;1.77;;
18917;SDS011;9591;52.742;13.650;2024-01-16T01:41:50;2.97;;;1.87;;
18917;SDS011;9591;52.742;13.650;2024-01-16T01:44:37;2.33;;;1.50;;
18917;SDS011;9591;52.742;13.650;2024-01-16T01:47:30;1.93;;;1.83;;
18917;SDS011;9591;52.742;13.650;2024-01-16T01:50:18;2.03;;;1.93;;
18917;SDS011;9591;52.742;13.650;2024-01-16T01:53:08;4.37;;;1.70;;
18917;SDS011;9591;52.742;13.650;2024-01-16T01:56:03;2.50;;;1.90;;
18917;SDS011;9591;52.742;13.650;2024-01-16T01:58:53;3.17;;;1.40;;
18917;SDS011;9591;52.742;13.650;2024-01-16T02:01:48;2.90;;;2.20;;
18917;SDS011;9591;52.742;13.650;2024-01-16T02:04:38;4.73;;;1.90;;
18917;SDS011;9591;52.742;13.650;2024-01-16T02:07:33;2.00;;;1.77;;
18917;SDS011;9591;52.742;13.650;2024-01-16T02:10:27;2.93;;;1.73;;
18917;SDS011;9591;52.742;13.650;2024-01-16T02:13:19;4.10;;;1.80;;
18917;SDS011;9591;52.742;13.650;2024-01-16T02:16:17;1.90;;;1.80;;
18917;SDS011;9591;52.742;13.650;2024-01-16T02:19:04;4.47;;;2.00;;
18917;SDS011;9591;52.742;13.650;2024-01-16T02:21:56;3.60;;;1.67;;
18917;SDS011;9591;52.742;13.650;2024-01-16T02:24:48;2.73;;;1.77;;
18917;SDS011;9591;52.742;13.650;2024-01-16T02:27:35;3.93;;;2.13;;
18917;SDS011;9591;52.742;13.650;2024-01-16T02:30:25;2.27;;;2.07;;
18917;SDS011;9591;52.742;13.650;2024-01-16T02:33:14;4.87;;;1.93;;
18917;SDS011;9591;52.742;13.650;2024-01-16T02:36:04;2.20;;;2.00;;
18917;SDS011;9591;52.742;13.650;2024-01-16T02:38:53;6.43;;;1.80;;
18917;SDS011;9591;52.742;13.650;2024-01-16T02:41:44;1.80;;;1.70;;
18917;SDS011;9591;52.742;13.650;2024-01-16T02:44:31;5.23;;;1.90;;
18917;SDS011;9591;52.742;13.650;2024-01-16T02:47:18;2.93;;;2.10;;
18917;SDS011;9591;52.742;13.650;2024-01-16T02:50:05;5.97;;;2.33;;
18917;SDS011;9591;52.742;13.650;2024-01-16T02:52:56;2.00;;;1.70;;
18917;SDS011;9591;52.742;13.650;2024-01-16T02:55:43;1.97;;;1.87;;
18917;SDS011;9591;52.742;13.650;2024-01-16T02:58:33;2.77;;;1.57;;
18917;SDS011;9591;52.742;13.650;2024-01-16T03:01:23;1.67;;;1.67;;
18917;SDS011;9591;52.742;13.650;2024-01-16T03:04:10;1.80;;;1.80;;
18917;SDS011;9591;52.742;13.650;2024-01-16T03:06:57;1.30;;;1.30;;
18917;SDS011;9591;52.742;13.650;2024-01-16T03:09:44;1.30;;;1.30;;
18917;SDS011;9591;52.742;13.650;2024-01-16T03:12:31;1.70;;;1.70;;
18917;SDS011;9591;52.742;13.650;2024-01-16T03:15:24;1.77;;;1.77;;
18917;SDS011;9591;52.742;13.650;2024-01-16T03:18:13;1.50;;;1.50;;
18917;SDS011;9591;52.742;13.650;2024-01-16T03:21:03;1.77;;;1.47;;
18917;SDS011;9591;52.742;13.650;2024-01-16T03:23:51;2.20;;;1.90;;
18917;SDS011;9591;52.742;13.650;2024-01-16T03:26:42;2.07;;;1.97;;
18917;SDS011;9591;52.742;13.650;2024-01-16T03:29:29;1.77;;;1.67;;
18917;SDS011;9591;52.742;13.650;2024-01-16T03:32:20;1.13;;;1.13;;
18917;SDS011;9591;52.742;13.650;2024-01-16T03:35:07;1.50;;;1.50;;
18917;SDS011;9591;52.742;13.650;2024-01-16T03:37:54;1.70;;;1.70;;
18917;SDS011;9591;52.742;13.650;2024-01-16T03:40:43;1.83;;;1.73;;
18917;SDS011;9591;52.742;13.650;2024-01-16T03:43:30;1.70;;;1.70;;
18917;SDS011;9591;52.742;13.650;2024-01-16T03:46:19;3.00;;;1.77;;
18917;SDS011;9591;52.742;13.650;2024-01-16T03:49:10;1.87;;;1.87;;
18917;SDS011;9591;52.742;13.650;2024-01-16T03:51:59;1.87;;;1.87;;
18917;SDS011;9591;52.742;13.650;2024-01-16T03:54:45;2.00;;;1.80;;
18917;SDS011;9591;52.742;13.650;2024-01-16T03:57:33;1.97;;;1.87;;
18917;SDS011;9591;52.742;13.650;2024-01-16T04:00:20;1.80;;;1.70;;
18917;SDS011;9591;52.742;13.650;2024-01-16T04:03:07;2.10;;;2.00;;
18917;SDS011;9591;52.742;13.650;2024-01-16T04:06:00;2.13;;;2.00;;
18917;SDS011;9591;52.742;13.650;2024-01-16T04:08:48;2.23;;;2.00;;
18917;SDS011;9591;52.742;13.650;2024-01-16T04:11:37;2.47;;;2.27;;
18917;SDS011;9591;52.742;13.650;2024-01-16T04:14:24;2.23;;;2.10;;
18917;SDS011;9591;52.742;13.650;2024-01-16T04:20:26;3.50;;;2.10;;
18917;SDS011;9591;52.742;13.650;2024-01-16T04:23:15;1.70;;;1.60;;
18917;SDS011;9591;52.742;13.650;2024-01-16T04:29:16;2.13;;;2.03;;
18917;SDS011;9591;52.742;13.650;2024-01-16T04:32:03;2.03;;;1.93;;
18917;SDS011;9591;52.742;13.650;2024-01-16T04:34:50;2.23;;;2.10;;
18917;SDS011;9591;52.742;13.650;2024-01-16T04:37:37;2.20;;;2.00;;
18917;SDS011;9591;52.742;13.650;2024-01-16T04:40:25;1.83;;;1.73;;
18917;SDS011;9591;52.742;13.650;2024-01-16T04:43:12;10.93;;;2.40;;
18917;SDS011;9591;52.742;13.650;2024-01-16T04:45:59;2.10;;;2.00;;
18917;SDS011;9591;52.742;13.650;2024-01-16T04:48:49;4.80;;;1.80;;
18917;SDS011;9591;52.742;13.650;2024-01-16T04:51:39;4.50;;;2.50;;
18917;SDS011;9591;52.742;13.650;2024-01-16T04:54:25;3.13;;;2.73;;
18917;SDS011;9591;52.742;13.650;2024-01-16T04:57:16;2.80;;;1.80;;
18917;SDS011;9591;52.742;13.650;2024-01-16T05:00:09;2.13;;;1.97;;
18917;SDS011;9591;52.742;13.650;2024-01-16T05:02:57;2.50;;;2.37;;
18917;SDS011;9591;52.742;13.650;2024-01-16T05:08:58;5.80;;;2.20;;
18917;SDS011;9591;52.742;13.650;2024-01-16T05:11:48;2.10;;;2.00;;
18917;SDS011;9591;52.742;13.650;2024-01-16T05:14:39;2.63;;;2.37;;
18917;SDS011;9591;52.742;13.650;2024-01-16T05:17:26;4.80;;;2.10;;
18917;SDS011;9591;52.742;13.650;2024-01-16T05:20:16;4.90;;;1.90;;
18917;SDS011;9591;52.742;13.650;2024-01-16T05:23:02;7.10;;;2.00;;
18917;SDS011;9591;52.742;13.650;2024-01-16T05:25:52;5.87;;;1.97;;
18917;SDS011;9591;52.742;13.650;2024-01-16T05:28:39;2.47;;;2.37;;
18917;SDS011;9591;52.742;13.650;2024-01-16T05:31:29;2.40;;;2.20;;
18917;SDS011;9591;52.742;13.650;2024-01-16T05:34:21;2.00;;;1.90;;
18917;SDS011;9591;52.742;13.650;2024-01-16T05:37:08;3.67;;;2.33;;
18917;SDS011;9591;52.742;13.650;2024-01-16T05:39:55;2.40;;;2.20;;
18917;SDS011;9591;52.742;13.650;2024-01-16T05:42:53;2.57;;;2.37;;
18917;SDS011;9591;52.742;13.650;2024-01-16T05:45:44;2.63;;;2.43;;
18917;SDS011;9591;52.742;13.650;2024-01-16T05:48:35;4.43;;;2.27;;
18917;SDS011;9591;52.742;13.650;2024-01-16T05:51:22;4.67;;;2.33;;
18917;SDS011;9591;52.742;13.650;2024-01-16T05:54:09;5.07;;;2.23;;
18917;SDS011;9591;52.742;13.650;2024-01-16T05:56:57;10.17;;;3.23;;
18917;SDS011;9591;52.742;13.650;2024-01-16T05:59:44;2.33;;;2.23;;
18917;SDS011;9591;52.742;13.650;2024-01-16T06:02:34;2.93;;;2.27;;
18917;SDS011;9591;52.742;13.650;2024-01-16T06:05:25;2.17;;;2.00;;
18917;SDS011;9591;52.742;13.650;2024-01-16T06:08:12;2.13;;;2.03;;
18917;SDS011;9591;52.742;13.650;2024-01-16T06:11:00;2.43;;;2.10;;
18917;SDS011;9591;52.742;13.650;2024-01-16T06:13:46;2.43;;;2.17;;
18917;SDS011;9591;52.742;13.650;2024-01-16T06:16:34;4.80;;;2.10;;
18917;SDS011;9591;52.742;13.650;2024-01-16T06:19:21;2.47;;;2.27;;
18917;SDS011;9591;52.742;13.650;2024-01-16T06:22:14;3.80;;;2.67;;
18917;SDS011;9591;52.742;13.650;2024-01-16T06:25:03;3.23;;;2.60;;
18917;SDS011;9591;52.742;13.650;2024-01-16T06:27:51;2.47;;;2.27;;
18917;SDS011;9591;52.742;13.650;2024-01-16T06:30:41;2.50;;;2.30;;
18917;SDS011;9591;52.742;13.650;2024-01-16T06:33:31;5.30;;;1.87;;
18917;SDS011;9591;52.742;13.650;2024-01-16T06:36:19;4.90;;;2.00;;
18917;SDS011;9591;52.742;13.650;2024-01-16T06:39:09;3.60;;;2.37;;
18917;SDS011;9591;52.742;13.650;2024-01-16T06:42:00;3.43;;;2.27;;
18917;SDS011;9591;52.742;13.650;2024-01-16T06:44:54;1.93;;;1.83;;
18917;SDS011;9591;52.742;13.650;2024-01-16T06:47:43;2.20;;;2.10;;
18917;SDS011;9591;52.742;13.650;2024-01-16T06:50:45;2.57;;;2.47;;
18917;SDS011;9591;52.742;13.650;2024-01-16T06:53:33;5.47;;;2.60;;
18917;SDS011;9591;52.742;13.650;2024-01-16T06:56:26;7.33;;;3.23;;
18917;SDS011;9591;52.742;13.650;2024-01-16T06:59:13;2.70;;;2.50;;
18917;SDS011;9591;52.742;13.650;2024-01-16T07:02:01;4.70;;;2.30;;
18917;SDS011;9591;52.742;13.650;2024-01-16T07:04:48;6.37;;;2.30;;
18917;SDS011;9591;52.742;13.650;2024-01-16T07:07:36;3.87;;;2.30;;
18917;SDS011;9591;52.742;13.650;2024-01-16T07:10:22;4.83;;;3.00;;
18917;SDS011;9591;52.742;13.650;2024-01-16T07:13:16;3.77;;;3.40;;
18917;SDS011;9591;52.742;13.650;2024-01-16T07:16:04;8.57;;;3.10;;
18917;SDS011;9591;52.742;13.650;2024-01-16T07:18:51;5.10;;;2.93;;
18917;SDS011;9591;52.742;13.650;2024-01-16T07:21:47;4.97;;;2.73;;
18917;SDS011;9591;52.742;13.650;2024-01-16T07:24:36;2.77;;;2.57;;
18917;SDS011;9591;52.742;13.650;2024-01-16T07:27:25;2.80;;;2.60;;
18917;SDS011;9591;52.742;13.650;2024-01-16T07:30:17;3.37;;;2.40;;
18917;SDS011;9591;52.742;13.650;2024-01-16T07:33:06;4.23;;;2.50;;
18917;SDS011;9591;52.742;13.650;2024-01-16T07:35:53;3.83;;;2.80;;
18917;SDS011;9591;52.742;13.650;2024-01-16T07:38:41;2.33;;;2.20;;
18917;SDS011;9591;52.742;13.650;2024-01-16T07:41:30;2.70;;;2.43;;
18917;SDS011;9591;52.742;13.650;2024-01-16T07:44:22;5.17;;;1.97;;
18917;SDS011;9591;52.742;13.650;2024-01-16T07:47:12;6.70;;;2.90;;
18917;SDS011;9591;52.742;13.650;2024-01-16T07:50:02;3.50;;;2.80;;
18917;SDS011;9591;52.742;13.650;2024-01-16T07:52:54;3.07;;;2.77;;
18917;SDS011;9591;52.742;13.650;2024-01-16T07:55:41;3.37;;;2.53;;
18917;SDS011;9591;52.742;13.650;2024-01-16T07:58:30;3.67;;;2.80;;
18917;SDS011;9591;52.742;13.650;2024-01-16T08:01:17;3.13;;;2.83;;
18917;SDS011;9591;52.742;13.650;2024-01-16T08:04:17;2.83;;;2.60;;
18917;SDS011;9591;52.742;13.650;2024-01-16T08:07:06;6.50;;;3.17;;
18917;SDS011;9591;52.742;13.650;2024-01-16T08:09:56;5.33;;;3.30;;
18917;SDS011;9591;52.742;13.650;2024-01-16T08:12:47;3.90;;;3.03;;
18917;SDS011;9591;52.742;13.650;2024-01-16T08:15:35;4.57;;;2.97;;
18917;SDS011;9591;52.742;13.650;2024-01-16T08:18:22;3.50;;;2.87;;
18917;SDS011;9591;52.742;13.650;2024-01-16T08:21:13;4.90;;;3.00;;
18917;SDS011;9591;52.742;13.650;2024-01-16T08:23:59;4.73;;;3.13;;
18917;SDS011;9591;52.742;13.650;2024-01-16T08:26:46;7.37;;;3.40;;
18917;SDS011;9591;52.742;13.650;2024-01-16T08:29:33;3.70;;;2.80;;
18917;SDS011;9591;52.742;13.650;2024-01-16T08:32:21;4.83;;;3.70;;
18917;SDS011;9591;52.742;13.650;2024-01-16T08:35:09;3.43;;;3.10;;
18917;SDS011;9591;52.742;13.650;2024-01-16T08:37:57;7.80;;;3.53;;
18917;SDS011;9591;52.742;13.650;2024-01-16T08:40:44;11.53;;;4.00;;
18917;SDS011;9591;52.742;13.650;2024-01-16T08:43:31;9.77;;;4.00;;
18917;SDS011;9591;52.742;13.650;2024-01-16T08:46:18;7.37;;;4.07;;
18917;SDS011;9591;52.742;13.650;2024-01-16T08:49:10;5.77;;;4.27;;
18917;SDS011;9591;52.742;13.650;2024-01-16T08:52:06;5.87;;;3.87;;
18917;SDS011;9591;52.742;13.650;2024-01-16T08:54:59;7.07;;;3.73;;
18917;SDS011;9591;52.742;13.650;2024-01-16T08:57:48;6.27;;;3.57;;
18917;SDS011;9591;52.742;13.650;2024-01-16T09:00:37;8.43;;;3.97;;
18917;SDS011;9591;52.742;13.650;2024-01-16T09:03:26;11.57;;;3.93;;
18917;SDS011;9591;52.742;13.650;2024-01-16T09:06:21;7.30;;;3.80;;
18917;SDS011;9591;52.742;13.650;2024-01-16T09:09:08;4.80;;;3.53;;
18917;SDS011;9591;52.742;13.650;2024-01-16T09:12:01;10.93;;;4.17;;
18917;SDS011;9591;52.742;13.650;2024-01-16T09:14:50;6.00;;;3.97;;
18917;SDS011;9591;52.742;13.650;2024-01-16T09:17:40;9.40;;;3.93;;
18917;SDS011;9591;52.742;13.650;2024-01-16T09:20:27;8.90;;;4.47;;
18917;SDS011;9591;52.742;13.650;2024-01-16T09:23:14;6.10;;;3.43;;
18917;SDS011;9591;52.742;13.650;2024-01-16T09:26:09;7.10;;;4.27;;
18917;SDS011;9591;52.742;13.650;2024-01-16T09:29:05;7.93;;;4.23;;
18917;SDS011;9591;52.742;13.650;2024-01-16T09:31:53;4.33;;;3.40;;
18917;SDS011;9591;52.742;13.650;2024-01-16T09:34:39;6.23;;;4.27;;
18917;SDS011;9591;52.742;13.650;2024-01-16T09:37:30;5.30;;;3.83;;
18917;SDS011;9591;52.742;13.650;2024-01-16T09:40:17;7.83;;;4.40;;
18917;SDS011;9591;52.742;13.650;2024-01-16T09:43:04;10.23;;;4.23;;
18917;SDS011;9591;52.742;13.650;2024-01-16T09:45:55;8.20;;;4.73;;
18917;SDS011;9591;52.742;13.650;2024-01-16T09:48:47;8.80;;;3.73;;
18917;SDS011;9591;52.742;13.650;2024-01-16T09:51:37;11.40;;;4.50;;
18917;SDS011;9591;52.742;13.650;2024-01-16T09:54:24;7.07;;;4.30;;
18917;SDS011;9591;52.742;13.650;2024-01-16T09:57:15;11.03;;;4.50;;
18917;SDS011;9591;52.742;13.650;2024-01-16T10:00:14;7.33;;;4.10;;
18917;SDS011;9591;52.742;13.650;2024-01-16T10:03:06;5.27;;;4.00;;
18917;SDS011;9591;52.742;13.650;2024-01-16T10:06:09;6.03;;;3.27;;
18917;SDS011;9591;52.742;13.650;2024-01-16T10:08:58;4.73;;;3.20;;
18917;SDS011;9591;52.742;13.650;2024-01-16T10:11:50;9.30;;;3.97;;
18917;SDS011;9591;52.742;13.650;2024-01-16T10:14:40;3.43;;;3.13;;
18917;SDS011;9591;52.742;13.650;2024-01-16T10:17:37;5.50;;;3.00;;
18917;SDS011;9591;52.742;13.650;2024-01-16T10:20:33;6.20;;;4.10;;
18917;SDS011;9591;52.742;13.650;2024-01-16T10:26:38;8.03;;;3.73;;
18917;SDS011;9591;52.742;13.650;2024-01-16T10:29:26;5.63;;;4.23;;
18917;SDS011;9591;52.742;13.650;2024-01-16T10:32:35;6.33;;;4.60;;
18917;SDS011;9591;52.742;13.650;2024-01-16T10:35:26;15.43;;;4.37;;
18917;SDS011;9591;52.742;13.650;2024-01-16T10:38:20;7.50;;;4.20;;
18917;SDS011;9591;52.742;13.650;2024-01-16T10:41:11;8.13;;;4.70;;
18917;SDS011;9591;52.742;13.650;2024-01-16T10:44:03;7.57;;;5.10;;
18917;SDS011;9591;52.742;13.650;2024-01-16T10:46:59;8.23;;;4.53;;
18917;SDS011;9591;52.742;13.650;2024-01-16T10:50:04;8.20;;;4.60;;
18917;SDS011;9591;52.742;13.650;2024-01-16T10:53:00;8.17;;;4.53;;
18917;SDS011;9591;52.742;13.650;2024-01-16T10:59:47;9.43;;;4.90;;
18917;SDS011;9591;52.742;13.650;2024-01-16T11:06:05;6.93;;;4.70;;
18917;SDS011;9591;52.742;13.650;2024-01-16T11:08:58;8.27;;;5.03;;
18917;SDS011;9591;52.742;13.650;2024-01-16T11:11:48;10.30;;;4.53;;
18917;SDS011;9591;52.742;13.650;2024-01-16T11:14:41;8.87;;;4.80;;
18917;SDS011;9591;52.742;13.650;2024-01-16T11:17:31;7.13;;;4.23;;
18917;SDS011;9591;52.742;13.650;2024-01-16T11:20:22;6.60;;;3.73;;
18917;SDS011;9591;52.742;13.650;2024-01-16T11:23:34;8.27;;;4.23;;
18917;SDS011;9591;52.742;13.650;2024-01-16T11:26:34;6.50;;;4.00;;
18917;SDS011;9591;52.742;13.650;2024-01-16T11:29:38;7.73;;;4.10;;
18917;SDS011;9591;52.742;13.650;2024-01-16T11:32:35;6.57;;;4.20;;
18917;SDS011;9591;52.742;13.650;2024-01-16T11:35:37;9.07;;;4.00;;
18917;SDS011;9591;52.742;13.650;2024-01-16T11:38:27;6.23;;;3.73;;
18917;SDS011;9591;52.742;13.650;2024-01-16T11:41:32;6.77;;;4.60;;
18917;SDS011;9591;52.742;13.650;2024-01-16T11:44:43;6.60;;;4.60;;
18917;SDS011;9591;52.742;13.650;2024-01-16T11:47:40;8.03;;;4.13;;
18917;SDS011;9591;52.742;13.650;2024-01-16T11:50:29;8.93;;;3.93;;
18917;SDS011;9591;52.742;13.650;2024-01-16T11:53:34;6.23;;;3.90;;
18917;SDS011;9591;52.742;13.650;2024-01-16T11:56:38;4.30;;;3.90;;
18917;SDS011;9591;52.742;13.650;2024-01-16T11:59:48;7.67;;;4.10;;
18917;SDS011;9591;52.742;13.650;2024-01-16T12:03:11;4.63;;;3.33;;
18917;SDS011;9591;52.742;13.650;2024-01-16T12:06:19;5.43;;;3.73;;
18917;SDS011;9591;52.742;13.650;2024-01-16T12:09:12;4.23;;;3.60;;
18917;SDS011;9591;52.742;13.650;2024-01-16T12:12:22;4.70;;;3.13;;
18917;SDS011;9591;52.742;13.650;2024-01-16T12:15:14;4.73;;;3.23;;
18917;SDS011;9591;52.742;13.650;2024-01-16T12:18:02;4.80;;;3.77;;
18917;SDS011;9591;52.742;13.650;2024-01-16T12:20:57;9.07;;;3.90;;
18917;SDS011;9591;52.742;13.650;2024-01-16T12:24:02;9.17;;;3.67;;
18917;SDS011;9591;52.742;13.650;2024-01-16T12:26:58;5.60;;;4.07;;
18917;SDS011;9591;52.742;13.650;2024-01-16T12:29:47;6.60;;;3.50;;
18917;SDS011;9591;52.742;13.650;2024-01-16T12:32:37;4.43;;;3.47;;
18917;SDS011;9591;52.742;13.650;2024-01-16T12:35:24;9.60;;;3.97;;
18917;SDS011;9591;52.742;13.650;2024-01-16T12:38:13;10.90;;;3.13;;
18917;SDS011;9591;52.742;13.650;2024-01-16T12:41:05;6.93;;;4.23;;
18917;SDS011;9591;52.742;13.650;2024-01-16T12:44:10;5.83;;;3.47;;
18917;SDS011;9591;52.742;13.650;2024-01-16T12:47:07;9.00;;;3.43;;
18917;SDS011;9591;52.742;13.650;2024-01-16T12:49:54;7.53;;;3.57;;
18917;SDS011;9591;52.742;13.650;2024-01-16T12:52:43;6.30;;;3.83;;
18917;SDS011;9591;52.742;13.650;2024-01-16T12:55:34;6.63;;;3.43;;
18917;SDS011;9591;52.742;13.650;2024-01-16T12:58:28;3.13;;;2.57;;
18917;SDS011;9591;52.742;13.650;2024-01-16T13:01:36;10.33;;;4.23;;
18917;SDS011;9591;52.742;13.650;2024-01-16T13:04:31;7.03;;;3.83;;
18917;SDS011;9591;52.742;13.650;2024-01-16T13:07:24;5.10;;;3.63;;
18917;SDS011;9591;52.742;13.650;2024-01-16T13:10:12;7.73;;;4.10;;
18917;SDS011;9591;52.742;13.650;2024-01-16T13:14:04;6.13;;;3.80;;
18917;SDS011;9591;52.742;13.650;2024-01-16T13:16:52;9.63;;;4.53;;
18917;SDS011;9591;52.742;13.650;2024-01-16T13:19:41;4.13;;;3.47;;
18917;SDS011;9591;52.742;13.650;2024-01-16T13:22:31;10.53;;;4.17;;
18917;SDS011;9591;52.742;13.650;2024-01-16T13:25:32;9.70;;;4.37;;
18917;SDS011;9591;52.742;13.650;2024-01-16T13:28:22;12.23;;;5.70;;
18917;SDS011;9591;52.742;13.650;2024-01-16T13:31:14;6.33;;;4.07;;
18917;SDS011;9591;52.742;13.650;2024-01-16T13:34:02;7.23;;;4.33;;
18917;SDS011;9591;52.742;13.650;2024-01-16T13:36:53;10.63;;;4.10;;
18917;SDS011;9591;52.742;13.650;2024-01-16T13:40:00;9.50;;;4.40;;
18917;SDS011;9591;52.742;13.650;2024-01-16T13:43:08;11.43;;;3.97;;
18917;SDS011;9591;52.742;13.650;2024-01-16T13:46:03;9.33;;;4.20;;
18917;SDS011;9591;52.742;13.650;2024-01-16T13:48:59;11.00;;;4.43;;
18917;SDS011;9591;52.742;13.650;2024-01-16T13:51:46;5.77;;;3.30;;
18917;SDS011;9591;52.742;13.650;2024-01-16T13:54:36;6.97;;;3.90;;
18917;SDS011;9591;52.742;13.650;2024-01-16T13:57:42;6.83;;;4.10;;
18917;SDS011;9591;52.742;13.650;2024-01-16T14:00:31;6.00;;;4.33;;
18917;SDS011;9591;52.742;13.650;2024-01-16T14:03:21;13.37;;;4.63;;
18917;SDS011;9591;52.742;13.650;2024-01-16T14:06:14;15.87;;;4.57;;
18917;SDS011;9591;52.742;13.650;2024-01-16T14:09:23;6.73;;;4.10;;
18917;SDS011;9591;52.742;13.650;2024-01-16T14:12:10;3.90;;;3.23;;
18917;SDS011;9591;52.742;13.650;2024-01-16T14:14:57;7.83;;;3.83;;
18917;SDS011;9591;52.742;13.650;2024-01-16T14:17:47;7.73;;;4.33;;
18917;SDS011;9591;52.742;13.650;2024-01-16T14:20:42;16.43;;;4.63;;
18917;SDS011;9591;52.742;13.650;2024-01-16T14:23:36;9.13;;;3.67;;
18917;SDS011;9591;52.742;13.650;2024-01-16T14:26:26;5.60;;;3.20;;
18917;SDS011;9591;52.742;13.650;2024-01-16T14:29:13;8.30;;;3.63;;
18917;SDS011;9591;52.742;13.650;2024-01-16T14:32:08;9.60;;;4.13;;
18917;SDS011;9591;52.742;13.650;2024-01-16T14:34:56;8.90;;;4.00;;
18917;SDS011;9591;52.742;13.650;2024-01-16T14:37:43;7.83;;;3.37;;
18917;SDS011;9591;52.742;13.650;2024-01-16T14:40:34;10.30;;;3.23;;
18917;SDS011;9591;52.742;13.650;2024-01-16T14:43:23;11.10;;;3.73;;
18917;SDS011;9591;52.742;13.650;2024-01-16T14:46:17;6.60;;;3.60;;
18917;SDS011;9591;52.742;13.650;2024-01-16T14:49:08;8.13;;;3.00;;
18917;SDS011;9591;52.742;13.650;2024-01-16T14:55:01;5.30;;;3.37;;
18917;SDS011;9591;52.742;13.650;2024-01-16T14:57:56;10.87;;;3.83;;
18917;SDS011;9591;52.742;13.650;2024-01-16T15:01:10;5.70;;;3.37;;
18917;SDS011;9591;52.742;13.650;2024-01-16T15:04:00;5.03;;;2.80;;
18917;SDS011;9591;52.742;13.650;2024-01-16T15:06:51;7.97;;;3.80;;
18917;SDS011;9591;52.742;13.650;2024-01-16T15:09:42;7.53;;;3.57;;
18917;SDS011;9591;52.742;13.650;2024-01-16T15:12:31;6.13;;;3.70;;
18917;SDS011;9591;52.742;13.650;2024-01-16T15:15:22;8.93;;;3.40;;
18917;SDS011;9591;52.742;13.650;2024-01-16T15:18:11;5.13;;;2.90;;
18917;SDS011;9591;52.742;13.650;2024-01-16T15:20:58;7.00;;;3.13;;
18917;SDS011;9591;52.742;13.650;2024-01-16T15:23:48;6.70;;;3.37;;
18917;SDS011;9591;52.742;13.650;2024-01-16T15:26:35;4.83;;;3.00;;
18917;SDS011;9591;52.742;13.650;2024-01-16T15:29:23;8.07;;;3.10;;
18917;SDS011;9591;52.742;13.650;2024-01-16T15:32:14;6.43;;;3.07;;
18917;SDS011;9591;52.742;13.650;2024-01-16T15:35:01;9.17;;;3.83;;
18917;SDS011;9591;52.742;13.650;2024-01-16T15:37:56;8.13;;;3.50;;
18917;SDS011;9591;52.742;13.650;2024-01-16T15:40:43;6.83;;;3.43;;
18917;SDS011;9591;52.742;13.650;2024-01-16T15:43:36;6.40;;;3.20;;
18917;SDS011;9591;52.742;13.650;2024-01-16T15:46:24;6.33;;;3.63;;
18917;SDS011;9591;52.742;13.650;2024-01-16T15:49:14;8.67;;;3.50;;
18917;SDS011;9591;52.742;13.650;2024-01-16T15:52:01;6.50;;;3.40;;
18917;SDS011;9591;52.742;13.650;2024-01-16T15:54:50;8.20;;;3.03;;
18917;SDS011;9591;52.742;13.650;2024-01-16T16:00:54;10.40;;;3.87;;
18917;SDS011;9591;52.742;13.650;2024-01-16T16:03:46;5.77;;;2.83;;
18917;SDS011;9591;52.742;13.650;2024-01-16T16:06:35;4.77;;;3.03;;
18917;SDS011;9591;52.742;13.650;2024-01-16T16:09:31;10.07;;;3.77;;
18917;SDS011;9591;52.742;13.650;2024-01-16T16:12:20;8.30;;;3.87;;
18917;SDS011;9591;52.742;13.650;2024-01-16T16:15:07;7.33;;;3.67;;
18917;SDS011;9591;52.742;13.650;2024-01-16T16:17:54;5.27;;;3.33;;
18917;SDS011;9591;52.742;13.650;2024-01-16T16:20:43;5.90;;;3.07;;
18917;SDS011;9591;52.742;13.650;2024-01-16T16:23:34;9.00;;;3.63;;
18917;SDS011;9591;52.742;13.650;2024-01-16T16:26:30;5.50;;;3.23;;
18917;SDS011;9591;52.742;13.650;2024-01-16T16:29:19;8.00;;;3.77;;
18917;SDS011;9591;52.742;13.650;2024-01-16T16:32:08;11.23;;;3.47;;
18917;SDS011;9591;52.742;13.650;2024-01-16T16:34:57;6.67;;;3.40;;
18917;SDS011;9591;52.742;13.650;2024-01-16T16:37:44;6.07;;;3.17;;
18917;SDS011;9591;52.742;13.650;2024-01-16T16:40:35;8.47;;;4.33;;
18917;SDS011;9591;52.742;13.650;2024-01-16T16:43:22;7.13;;;4.20;;
18917;SDS011;9591;52.742;13.650;2024-01-16T16:46:12;14.03;;;4.10;;
18917;SDS011;9591;52.742;13.650;2024-01-16T16:49:02;6.83;;;4.40;;
18917;SDS011;9591;52.742;13.650;2024-01-16T16:51:52;13.63;;;5.30;;
18917;SDS011;9591;52.742;13.650;2024-01-16T16:54:41;10.80;;;4.47;;
18917;SDS011;9591;52.742;13.650;2024-01-16T16:57:41;7.70;;;4.00;;
18917;SDS011;9591;52.742;13.650;2024-01-16T17:00:27;10.00;;;4.60;;
18917;SDS011;9591;52.742;13.650;2024-01-16T17:03:17;7.43;;;4.37;;
18917;SDS011;9591;52.742;13.650;2024-01-16T17:06:06;10.13;;;4.63;;
18917;SDS011;9591;52.742;13.650;2024-01-16T17:08:53;9.97;;;4.93;;
18917;SDS011;9591;52.742;13.650;2024-01-16T17:11:43;7.17;;;4.87;;
18917;SDS011;9591;52.742;13.650;2024-01-16T17:14:33;13.97;;;5.07;;
18917;SDS011;9591;52.742;13.650;2024-01-16T17:17:23;5.00;;;4.17;;
18917;SDS011;9591;52.742;13.650;2024-01-16T17:20:15;10.87;;;4.80;;
18917;SDS011;9591;52.742;13.650;2024-01-16T17:23:08;7.50;;;4.30;;
18917;SDS011;9591;52.742;13.650;2024-01-16T17:26:00;11.47;;;4.70;;
18917;SDS011;9591;52.742;13.650;2024-01-16T17:28:47;9.73;;;4.60;;
18917;SDS011;9591;52.742;13.650;2024-01-16T17:31:37;13.53;;;4.47;;
18917;SDS011;9591;52.742;13.650;2024-01-16T17:34:27;7.37;;;5.10;;
18917;SDS011;9591;52.742;13.650;2024-01-16T17:37:14;6.50;;;4.13;;
18917;SDS011;9591;52.742;13.650;2024-01-16T17:40:04;10.43;;;4.43;;
18917;SDS011;9591;52.742;13.650;2024-01-16T17:42:58;11.73;;;4.87;;
18917;SDS011;9591;52.742;13.650;2024-01-16T17:45:47;11.57;;;5.23;;